sensor_id;sensor_type;location;lat;lon;timestamp;temperature;humidity
16267;DHT22;8241;48.786;9.250;2022-08-21T00:01:48;18.10;99.90
16267;DHT22;8241;48.786;9.250;2022-08-21T00:04:15;18.00;99.90
16267;DHT22;8241;48.786;9.250;2022-08-21T00:07:17;17.90;99.90
16267;DHT22;8241;48.786;9.250;2022-08-21T00:09:54;18.00;99.90
16267;DHT22;8241;48.786;9.250;2022-08-21T00:12:22;18.00;99.90
16267;DHT22;8241;48.786;9.250;2022-08-21T00:14:55;17.90;99.90
16267;DHT22;8241;48.786;9.250;2022-08-21T00:17:40;18.00;99.90
16267;DHT22;8241;48.786;9.250;2022-08-21T00:20:09;17.80;99.90
16267;DHT22;8241;48.786;9.250;2022-08-21T00:22:37;17.70;99.90
16267;DHT22;8241;48.786;9.250;2022-08-21T00:25:27;17.70;99.90
16267;DHT22;8241;48.786;9.250;2022-08-21T00:27:55;17.70;99.90
16267;DHT22;8241;48.786;9.250;2022-08-21T00:30:23;17.60;99.90
16267;DHT22;8241;48.786;9.250;2022-08-21T00:32:53;17.70;99.90
16267;DHT22;8241;48.786;9.250;2022-08-21T00:35:23;17.50;99.90
16267;DHT22;8241;48.786;9.250;2022-08-21T00:37:57;17.20;99.90
16267;DHT22;8241;48.786;9.250;2022-08-21T00:40:29;17.20;99.90
16267;DHT22;8241;48.786;9.250;2022-08-21T00:42:57;17.10;99.90
16267;DHT22;8241;48.786;9.250;2022-08-21T00:45:24;17.10;99.90
16267;DHT22;8241;48.786;9.250;2022-08-21T00:47:54;17.20;99.90
16267;DHT22;8241;48.786;9.250;2022-08-21T00:50:30;17.20;99.90
16267;DHT22;8241;48.786;9.250;2022-08-21T00:52:58;17.30;99.90
16267;DHT22;8241;48.786;9.250;2022-08-21T00:55:27;17.40;99.90
16267;DHT22;8241;48.786;9.250;2022-08-21T00:57:57;17.30;99.90
16267;DHT22;8241;48.786;9.250;2022-08-21T01:00:40;17.30;99.90
16267;DHT22;8241;48.786;9.250;2022-08-21T01:03:15;17.20;99.90
16267;DHT22;8241;48.786;9.250;2022-08-21T01:05:43;17.20;99.90
16267;DHT22;8241;48.786;9.250;2022-08-21T01:08:13;17.10;99.90
16267;DHT22;8241;48.786;9.250;2022-08-21T01:10:47;17.00;99.90
16267;DHT22;8241;48.786;9.250;2022-08-21T01:13:16;17.10;99.90
16267;DHT22;8241;48.786;9.250;2022-08-21T01:15:45;17.20;99.90
16267;DHT22;8241;48.786;9.250;2022-08-21T01:18:15;17.10;99.90
16267;DHT22;8241;48.786;9.250;2022-08-21T01:23:13;17.00;99.90
16267;DHT22;8241;48.786;9.250;2022-08-21T01:25:40;17.10;99.90
16267;DHT22;8241;48.786;9.250;2022-08-21T01:28:11;17.00;99.90
16267;DHT22;8241;48.786;9.250;2022-08-21T01:30:39;16.90;99.90
16267;DHT22;8241;48.786;9.250;2022-08-21T01:33:07;17.00;99.90
16267;DHT22;8241;48.786;9.250;2022-08-21T01:35:36;16.90;99.90
16267;DHT22;8241;48.786;9.250;2022-08-21T01:38:03;17.00;99.90
16267;DHT22;8241;48.786;9.250;2022-08-21T01:40:32;16.90;99.90
16267;DHT22;8241;48.786;9.250;2022-08-21T01:42:59;16.90;99.90
16267;DHT22;8241;48.786;9.250;2022-08-21T01:45:26;16.70;99.90
16267;DHT22;8241;48.786;9.250;2022-08-21T01:47:53;16.70;99.90
16267;DHT22;8241;48.786;9.250;2022-08-21T01:50:20;16.70;99.90
16267;DHT22;8241;48.786;9.250;2022-08-21T01:52:47;16.70;99.90
16267;DHT22;8241;48.786;9.250;2022-08-21T01:55:16;16.70;99.90
16267;DHT22;8241;48.786;9.250;2022-08-21T01:57:46;16.70;99.90
16267;DHT22;8241;48.786;9.250;2022-08-21T02:00:15;16.60;99.90
16267;DHT22;8241;48.786;9.250;2022-08-21T02:02:52;16.50;99.90
16267;DHT22;8241;48.786;9.250;2022-08-21T02:05:19;16.40;99.90
16267;DHT22;8241;48.786;9.250;2022-08-21T02:07:50;16.50;99.90
16267;DHT22;8241;48.786;9.250;2022-08-21T02:10:22;16.40;99.90
16267;DHT22;8241;48.786;9.250;2022-08-21T02:12:50;16.40;99.90
16267;DHT22;8241;48.786;9.250;2022-08-21T02:15:18;16.30;99.90
16267;DHT22;8241;48.786;9.250;2022-08-21T02:17:47;16.20;99.90
16267;DHT22;8241;48.786;9.250;2022-08-21T02:20:17;16.10;99.90
16267;DHT22;8241;48.786;9.250;2022-08-21T02:22:44;16.20;99.90
16267;DHT22;8241;48.786;9.250;2022-08-21T02:25:11;16.20;99.90
16267;DHT22;8241;48.786;9.250;2022-08-21T02:27:39;16.20;99.90
16267;DHT22;8241;48.786;9.250;2022-08-21T02:30:10;16.20;99.90
16267;DHT22;8241;48.786;9.250;2022-08-21T02:32:46;16.20;99.90
16267;DHT22;8241;48.786;9.250;2022-08-21T02:35:13;16.30;99.90
16267;DHT22;8241;48.786;9.250;2022-08-21T02:38:00;16.20;99.90
16267;DHT22;8241;48.786;9.250;2022-08-21T02:40:29;16.00;99.90
16267;DHT22;8241;48.786;9.250;2022-08-21T02:42:56;16.00;99.90
16267;DHT22;8241;48.786;9.250;2022-08-21T02:45:29;16.00;99.90
16267;DHT22;8241;48.786;9.250;2022-08-21T02:47:57;16.10;99.90
16267;DHT22;8241;48.786;9.250;2022-08-21T02:50:26;16.20;99.90
16267;DHT22;8241;48.786;9.250;2022-08-21T02:52:54;16.20;99.90
16267;DHT22;8241;48.786;9.250;2022-08-21T02:55:22;16.40;99.90
16267;DHT22;8241;48.786;9.250;2022-08-21T02:57:51;16.40;99.90
16267;DHT22;8241;48.786;9.250;2022-08-21T03:00:19;16.30;99.90
16267;DHT22;8241;48.786;9.250;2022-08-21T03:02:48;16.00;99.90
16267;DHT22;8241;48.786;9.250;2022-08-21T03:05:16;16.20;99.90
16267;DHT22;8241;48.786;9.250;2022-08-21T03:07:43;16.30;99.90
16267;DHT22;8241;48.786;9.250;2022-08-21T03:10:31;16.30;99.90
16267;DHT22;8241;48.786;9.250;2022-08-21T03:12:58;16.10;99.90
16267;DHT22;8241;48.786;9.250;2022-08-21T03:15:24;16.00;99.90
16267;DHT22;8241;48.786;9.250;2022-08-21T03:17:53;16.00;99.90
16267;DHT22;8241;48.786;9.250;2022-08-21T03:20:26;15.90;99.90
16267;DHT22;8241;48.786;9.250;2022-08-21T03:22:54;16.10;99.90
16267;DHT22;8241;48.786;9.250;2022-08-21T03:25:23;16.20;99.90
16267;DHT22;8241;48.786;9.250;2022-08-21T03:27:50;16.10;99.90
16267;DHT22;8241;48.786;9.250;2022-08-21T03:30:19;16.10;99.90
16267;DHT22;8241;48.786;9.250;2022-08-21T03:32:54;16.20;99.90
16267;DHT22;8241;48.786;9.250;2022-08-21T03:35:21;16.00;99.90
16267;DHT22;8241;48.786;9.250;2022-08-21T03:38:05;15.90;99.90
16267;DHT22;8241;48.786;9.250;2022-08-21T03:40:31;15.80;99.90
16267;DHT22;8241;48.786;9.250;2022-08-21T03:42:58;15.80;99.90
16267;DHT22;8241;48.786;9.250;2022-08-21T03:45:25;15.90;99.90
16267;DHT22;8241;48.786;9.250;2022-08-21T03:47:56;15.90;99.90
16267;DHT22;8241;48.786;9.250;2022-08-21T03:50:24;15.90;99.90
16267;DHT22;8241;48.786;9.250;2022-08-21T03:52:51;15.80;99.90
16267;DHT22;8241;48.786;9.250;2022-08-21T03:55:45;15.60;99.90
16267;DHT22;8241;48.786;9.250;2022-08-21T03:58:25;15.60;99.90
16267;DHT22;8241;48.786;9.250;2022-08-21T04:00:58;15.70;99.90
16267;DHT22;8241;48.786;9.250;2022-08-21T04:03:30;15.60;99.90
16267;DHT22;8241;48.786;9.250;2022-08-21T04:06:04;15.70;99.90
16267;DHT22;8241;48.786;9.250;2022-08-21T04:08:40;15.70;99.90
16267;DHT22;8241;48.786;9.250;2022-08-21T04:11:30;15.60;99.90
16267;DHT22;8241;48.786;9.250;2022-08-21T04:13:57;15.60;99.90
16267;DHT22;8241;48.786;9.250;2022-08-21T04:16:32;15.70;99.90
16267;DHT22;8241;48.786;9.250;2022-08-21T04:19:00;15.60;99.90
16267;DHT22;8241;48.786;9.250;2022-08-21T04:21:41;15.70;99.90
16267;DHT22;8241;48.786;9.250;2022-08-21T04:24:14;15.90;99.90
16267;DHT22;8241;48.786;9.250;2022-08-21T04:26:56;15.80;99.90
16267;DHT22;8241;48.786;9.250;2022-08-21T04:29:23;15.70;99.90
16267;DHT22;8241;48.786;9.250;2022-08-21T04:31:50;15.60;99.90
16267;DHT22;8241;48.786;9.250;2022-08-21T04:34:28;15.50;99.90
16267;DHT22;8241;48.786;9.250;2022-08-21T04:36:55;15.40;99.90
16267;DHT22;8241;48.786;9.250;2022-08-21T04:39:22;15.40;99.90
16267;DHT22;8241;48.786;9.250;2022-08-21T04:41:50;15.60;99.90
16267;DHT22;8241;48.786;9.250;2022-08-21T04:44:17;15.70;99.90
16267;DHT22;8241;48.786;9.250;2022-08-21T04:46:43;15.70;99.90
16267;DHT22;8241;48.786;9.250;2022-08-21T04:49:21;15.70;99.90
16267;DHT22;8241;48.786;9.250;2022-08-21T04:51:49;15.70;99.90
16267;DHT22;8241;48.786;9.250;2022-08-21T04:54:19;15.70;99.90
16267;DHT22;8241;48.786;9.250;2022-08-21T04:56:51;15.60;99.90
16267;DHT22;8241;48.786;9.250;2022-08-21T04:59:24;15.70;99.90
16267;DHT22;8241;48.786;9.250;2022-08-21T05:01:53;15.50;99.90
16267;DHT22;8241;48.786;9.250;2022-08-21T05:04:27;15.40;99.90
16267;DHT22;8241;48.786;9.250;2022-08-21T05:10:18;15.50;99.90
16267;DHT22;8241;48.786;9.250;2022-08-21T05:13:09;15.50;99.90
16267;DHT22;8241;48.786;9.250;2022-08-21T05:15:39;15.50;99.90
16267;DHT22;8241;48.786;9.250;2022-08-21T05:18:06;15.50;99.90
16267;DHT22;8241;48.786;9.250;2022-08-21T05:20:33;15.50;99.90
16267;DHT22;8241;48.786;9.250;2022-08-21T05:23:13;15.50;99.90
16267;DHT22;8241;48.786;9.250;2022-08-21T05:25:42;15.50;99.90
16267;DHT22;8241;48.786;9.250;2022-08-21T05:28:10;15.50;99.90
16267;DHT22;8241;48.786;9.250;2022-08-21T05:30:38;15.60;99.90
16267;DHT22;8241;48.786;9.250;2022-08-21T05:33:06;15.60;99.90
16267;DHT22;8241;48.786;9.250;2022-08-21T05:35:34;15.70;99.90
16267;DHT22;8241;48.786;9.250;2022-08-21T05:38:01;15.60;99.90
16267;DHT22;8241;48.786;9.250;2022-08-21T05:40:56;15.70;99.90
16267;DHT22;8241;48.786;9.250;2022-08-21T05:43:23;15.60;99.90
16267;DHT22;8241;48.786;9.250;2022-08-21T05:45:50;15.50;99.90
16267;DHT22;8241;48.786;9.250;2022-08-21T05:48:24;15.50;99.90
16267;DHT22;8241;48.786;9.250;2022-08-21T05:50:52;15.50;99.90
16267;DHT22;8241;48.786;9.250;2022-08-21T05:53:26;15.60;99.90
16267;DHT22;8241;48.786;9.250;2022-08-21T05:55:53;15.60;99.90
16267;DHT22;8241;48.786;9.250;2022-08-21T05:58:22;15.60;99.90
16267;DHT22;8241;48.786;9.250;2022-08-21T06:00:50;15.70;99.90
16267;DHT22;8241;48.786;9.250;2022-08-21T06:03:28;15.70;99.90
16267;DHT22;8241;48.786;9.250;2022-08-21T06:05:55;15.70;99.90
16267;DHT22;8241;48.786;9.250;2022-08-21T06:08:24;15.70;99.90
16267;DHT22;8241;48.786;9.250;2022-08-21T06:10:52;15.80;99.90
16267;DHT22;8241;48.786;9.250;2022-08-21T06:13:24;15.90;99.90
16267;DHT22;8241;48.786;9.250;2022-08-21T06:16:08;16.00;99.90
16267;DHT22;8241;48.786;9.250;2022-08-21T06:18:38;16.20;99.90
16267;DHT22;8241;48.786;9.250;2022-08-21T06:21:13;16.30;99.90
16267;DHT22;8241;48.786;9.250;2022-08-21T06:26:48;16.60;99.90
16267;DHT22;8241;48.786;9.250;2022-08-21T06:29:17;16.70;99.90
16267;DHT22;8241;48.786;9.250;2022-08-21T06:31:45;16.90;99.90
16267;DHT22;8241;48.786;9.250;2022-08-21T06:34:14;17.10;99.90
16267;DHT22;8241;48.786;9.250;2022-08-21T06:36:45;17.30;99.90
16267;DHT22;8241;48.786;9.250;2022-08-21T06:39:13;17.40;99.90
16267;DHT22;8241;48.786;9.250;2022-08-21T06:41:47;17.60;99.90
16267;DHT22;8241;48.786;9.250;2022-08-21T06:44:26;17.80;99.90
16267;DHT22;8241;48.786;9.250;2022-08-21T06:46:53;17.90;99.90
16267;DHT22;8241;48.786;9.250;2022-08-21T06:49:20;17.90;99.90
16267;DHT22;8241;48.786;9.250;2022-08-21T06:51:49;17.90;99.90
16267;DHT22;8241;48.786;9.250;2022-08-21T06:54:34;17.90;99.90
16267;DHT22;8241;48.786;9.250;2022-08-21T06:57:03;18.00;99.90
16267;DHT22;8241;48.786;9.250;2022-08-21T06:59:32;18.20;99.90
16267;DHT22;8241;48.786;9.250;2022-08-21T07:02:09;18.30;99.90
16267;DHT22;8241;48.786;9.250;2022-08-21T07:04:49;18.40;99.90
16267;DHT22;8241;48.786;9.250;2022-08-21T07:07:28;18.70;99.90
16267;DHT22;8241;48.786;9.250;2022-08-21T07:10:19;18.80;99.90
16267;DHT22;8241;48.786;9.250;2022-08-21T07:12:49;18.80;99.90
16267;DHT22;8241;48.786;9.250;2022-08-21T07:15:18;18.80;99.90
16267;DHT22;8241;48.786;9.250;2022-08-21T07:17:47;18.80;99.90
16267;DHT22;8241;48.786;9.250;2022-08-21T07:20:15;19.10;99.90
16267;DHT22;8241;48.786;9.250;2022-08-21T07:26:45;19.40;99.90
16267;DHT22;8241;48.786;9.250;2022-08-21T07:29:14;19.50;99.90
16267;DHT22;8241;48.786;9.250;2022-08-21T07:31:43;19.60;99.90
16267;DHT22;8241;48.786;9.250;2022-08-21T07:34:11;19.90;99.90
16267;DHT22;8241;48.786;9.250;2022-08-21T07:36:41;20.10;99.90
16267;DHT22;8241;48.786;9.250;2022-08-21T07:39:13;20.30;99.90
16267;DHT22;8241;48.786;9.250;2022-08-21T07:41:39;20.40;99.90
16267;DHT22;8241;48.786;9.250;2022-08-21T07:44:25;20.50;99.90
16267;DHT22;8241;48.786;9.250;2022-08-21T07:46:53;20.30;99.90
16267;DHT22;8241;48.786;9.250;2022-08-21T07:49:21;20.40;99.90
16267;DHT22;8241;48.786;9.250;2022-08-21T07:51:52;20.10;99.90
16267;DHT22;8241;48.786;9.250;2022-08-21T07:54:21;20.30;99.90
16267;DHT22;8241;48.786;9.250;2022-08-21T07:56:49;20.20;99.90
16267;DHT22;8241;48.786;9.250;2022-08-21T07:59:16;20.20;99.90
16267;DHT22;8241;48.786;9.250;2022-08-21T08:01:43;20.20;99.90
16267;DHT22;8241;48.786;9.250;2022-08-21T08:04:14;20.60;99.90
16267;DHT22;8241;48.786;9.250;2022-08-21T08:06:44;21.00;99.70
16267;DHT22;8241;48.786;9.250;2022-08-21T08:09:19;21.10;99.30
16267;DHT22;8241;48.786;9.250;2022-08-21T08:11:46;20.90;99.60
16267;DHT22;8241;48.786;9.250;2022-08-21T08:14:18;20.90;99.30
16267;DHT22;8241;48.786;9.250;2022-08-21T08:16:45;21.10;98.90
16267;DHT22;8241;48.786;9.250;2022-08-21T08:19:22;21.60;98.10
16267;DHT22;8241;48.786;9.250;2022-08-21T08:21:50;22.00;97.00
16267;DHT22;8241;48.786;9.250;2022-08-21T08:24:18;22.30;96.60
16267;DHT22;8241;48.786;9.250;2022-08-21T08:26:45;22.50;96.20
16267;DHT22;8241;48.786;9.250;2022-08-21T08:29:14;22.40;96.70
16267;DHT22;8241;48.786;9.250;2022-08-21T08:31:44;22.30;96.60
16267;DHT22;8241;48.786;9.250;2022-08-21T08:34:17;22.40;96.70
16267;DHT22;8241;48.786;9.250;2022-08-21T08:36:50;22.40;96.90
16267;DHT22;8241;48.786;9.250;2022-08-21T08:39:37;22.60;96.60
16267;DHT22;8241;48.786;9.250;2022-08-21T08:42:08;22.80;96.20
16267;DHT22;8241;48.786;9.250;2022-08-21T08:44:36;23.30;95.60
16267;DHT22;8241;48.786;9.250;2022-08-21T08:47:33;23.40;95.30
16267;DHT22;8241;48.786;9.250;2022-08-21T08:50:04;23.80;94.50
16267;DHT22;8241;48.786;9.250;2022-08-21T08:52:42;24.20;94.20
16267;DHT22;8241;48.786;9.250;2022-08-21T08:55:11;24.80;93.10
16267;DHT22;8241;48.786;9.250;2022-08-21T08:57:39;25.20;92.70
16267;DHT22;8241;48.786;9.250;2022-08-21T09:00:09;25.20;92.30
16267;DHT22;8241;48.786;9.250;2022-08-21T09:02:38;25.10;91.00
16267;DHT22;8241;48.786;9.250;2022-08-21T09:05:05;25.60;91.20
16267;DHT22;8241;48.786;9.250;2022-08-21T09:07:50;26.40;91.20
16267;DHT22;8241;48.786;9.250;2022-08-21T09:10:21;27.40;88.50
16267;DHT22;8241;48.786;9.250;2022-08-21T09:12:51;28.60;85.10
16267;DHT22;8241;48.786;9.250;2022-08-21T09:15:21;28.70;82.70
16267;DHT22;8241;48.786;9.250;2022-08-21T09:17:56;28.70;84.30
16267;DHT22;8241;48.786;9.250;2022-08-21T09:20:28;27.90;83.80
16267;DHT22;8241;48.786;9.250;2022-08-21T09:23:00;28.00;85.00
16267;DHT22;8241;48.786;9.250;2022-08-21T09:28:08;28.70;81.10
16267;DHT22;8241;48.786;9.250;2022-08-21T09:33:06;28.10;81.10
16267;DHT22;8241;48.786;9.250;2022-08-21T09:35:33;27.80;82.60
16267;DHT22;8241;48.786;9.250;2022-08-21T09:38:05;28.40;83.40
16267;DHT22;8241;48.786;9.250;2022-08-21T09:40:36;28.50;80.80
16267;DHT22;8241;48.786;9.250;2022-08-21T09:43:16;27.90;83.50
16267;DHT22;8241;48.786;9.250;2022-08-21T09:48:51;29.30;82.90
16267;DHT22;8241;48.786;9.250;2022-08-21T09:51:24;29.50;79.60
16267;DHT22;8241;48.786;9.250;2022-08-21T09:54:00;29.30;81.30
16267;DHT22;8241;48.786;9.250;2022-08-21T09:56:51;30.00;78.70
16267;DHT22;8241;48.786;9.250;2022-08-21T09:59:51;30.50;77.40
16267;DHT22;8241;48.786;9.250;2022-08-21T10:02:34;31.30;76.20
16267;DHT22;8241;48.786;9.250;2022-08-21T10:05:07;30.80;75.30
16267;DHT22;8241;48.786;9.250;2022-08-21T10:07:36;30.60;76.10
16267;DHT22;8241;48.786;9.250;2022-08-21T10:10:17;30.80;76.40
16267;DHT22;8241;48.786;9.250;2022-08-21T10:12:58;30.70;76.20
16267;DHT22;8241;48.786;9.250;2022-08-21T10:15:35;30.40;75.60
16267;DHT22;8241;48.786;9.250;2022-08-21T10:18:22;30.30;76.00
16267;DHT22;8241;48.786;9.250;2022-08-21T10:20:56;29.70;76.90
16267;DHT22;8241;48.786;9.250;2022-08-21T10:23:29;29.20;78.00
16267;DHT22;8241;48.786;9.250;2022-08-21T10:26:08;28.50;80.00
16267;DHT22;8241;48.786;9.250;2022-08-21T10:28:39;28.70;81.20
16267;DHT22;8241;48.786;9.250;2022-08-21T10:31:12;28.90;79.50
16267;DHT22;8241;48.786;9.250;2022-08-21T10:33:42;28.60;79.70
16267;DHT22;8241;48.786;9.250;2022-08-21T10:36:13;28.10;80.00
16267;DHT22;8241;48.786;9.250;2022-08-21T10:41:39;28.60;78.70
16267;DHT22;8241;48.786;9.250;2022-08-21T10:46:48;28.20;79.50
16267;DHT22;8241;48.786;9.250;2022-08-21T10:49:19;28.20;81.80
16267;DHT22;8241;48.786;9.250;2022-08-21T10:52:04;28.40;78.50
16267;DHT22;8241;48.786;9.250;2022-08-21T10:57:09;28.20;78.00
16267;DHT22;8241;48.786;9.250;2022-08-21T10:59:47;27.40;80.40
16267;DHT22;8241;48.786;9.250;2022-08-21T11:02:18;26.90;82.10
16267;DHT22;8241;48.786;9.250;2022-08-21T11:04:51;26.70;83.10
16267;DHT22;8241;48.786;9.250;2022-08-21T11:07:21;26.70;83.90
16267;DHT22;8241;48.786;9.250;2022-08-21T11:09:48;26.70;83.00
16267;DHT22;8241;48.786;9.250;2022-08-21T11:12:19;27.10;82.40
16267;DHT22;8241;48.786;9.250;2022-08-21T11:14:54;27.20;82.50
16267;DHT22;8241;48.786;9.250;2022-08-21T11:19:53;27.20;81.90
16267;DHT22;8241;48.786;9.250;2022-08-21T11:22:21;27.30;81.20
16267;DHT22;8241;48.786;9.250;2022-08-21T11:25:03;27.40;81.10
16267;DHT22;8241;48.786;9.250;2022-08-21T11:27:41;27.50;80.90
16267;DHT22;8241;48.786;9.250;2022-08-21T11:35:33;27.60;78.90
16267;DHT22;8241;48.786;9.250;2022-08-21T11:43:52;27.20;80.20
16267;DHT22;8241;48.786;9.250;2022-08-21T11:46:28;27.10;81.10
16267;DHT22;8241;48.786;9.250;2022-08-21T11:49:06;27.30;81.30
16267;DHT22;8241;48.786;9.250;2022-08-21T11:51:38;27.60;79.10
16267;DHT22;8241;48.786;9.250;2022-08-21T11:54:16;27.60;78.70
16267;DHT22;8241;48.786;9.250;2022-08-21T11:56:53;27.80;77.70
16267;DHT22;8241;48.786;9.250;2022-08-21T11:59:32;28.10;77.20
16267;DHT22;8241;48.786;9.250;2022-08-21T12:02:12;28.00;79.20
16267;DHT22;8241;48.786;9.250;2022-08-21T12:04:44;28.20;79.30
16267;DHT22;8241;48.786;9.250;2022-08-21T12:07:13;28.50;77.10
16267;DHT22;8241;48.786;9.250;2022-08-21T12:09:51;28.70;76.20
16267;DHT22;8241;48.786;9.250;2022-08-21T12:12:28;28.80;76.30
16267;DHT22;8241;48.786;9.250;2022-08-21T12:17:59;28.90;76.80
16267;DHT22;8241;48.786;9.250;2022-08-21T12:20:39;29.30;75.80
16267;DHT22;8241;48.786;9.250;2022-08-21T12:26:17;30.00;73.80
16267;DHT22;8241;48.786;9.250;2022-08-21T12:28:46;30.30;73.60
16267;DHT22;8241;48.786;9.250;2022-08-21T12:31:21;30.40;73.90
16267;DHT22;8241;48.786;9.250;2022-08-21T12:33:54;30.20;73.70
16267;DHT22;8241;48.786;9.250;2022-08-21T12:36:23;30.30;73.30
16267;DHT22;8241;48.786;9.250;2022-08-21T12:39:10;30.60;74.40
16267;DHT22;8241;48.786;9.250;2022-08-21T12:41:42;31.10;71.30
16267;DHT22;8241;48.786;9.250;2022-08-21T12:44:13;31.40;70.90
16267;DHT22;8241;48.786;9.250;2022-08-21T12:46:42;31.80;70.00
16267;DHT22;8241;48.786;9.250;2022-08-21T12:49:14;32.00;70.80
16267;DHT22;8241;48.786;9.250;2022-08-21T12:51:49;32.50;68.80
16267;DHT22;8241;48.786;9.250;2022-08-21T12:54:24;33.20;68.20
16267;DHT22;8241;48.786;9.250;2022-08-21T12:59:51;33.30;67.70
16267;DHT22;8241;48.786;9.250;2022-08-21T13:02:26;34.10;65.30
16267;DHT22;8241;48.786;9.250;2022-08-21T13:04:56;34.30;64.00
16267;DHT22;8241;48.786;9.250;2022-08-21T13:07:27;34.40;63.10
16267;DHT22;8241;48.786;9.250;2022-08-21T13:09:59;34.70;63.20
16267;DHT22;8241;48.786;9.250;2022-08-21T13:18:19;35.90;59.60
16267;DHT22;8241;48.786;9.250;2022-08-21T13:20:49;35.80;59.30
16267;DHT22;8241;48.786;9.250;2022-08-21T13:23:19;35.00;59.70
16267;DHT22;8241;48.786;9.250;2022-08-21T13:25:52;34.00;63.10
16267;DHT22;8241;48.786;9.250;2022-08-21T13:28:19;34.50;62.40
16267;DHT22;8241;48.786;9.250;2022-08-21T13:30:46;33.80;62.60
16267;DHT22;8241;48.786;9.250;2022-08-21T13:33:17;33.60;63.50
16267;DHT22;8241;48.786;9.250;2022-08-21T13:35:46;33.60;62.70
16267;DHT22;8241;48.786;9.250;2022-08-21T13:38:15;34.40;60.90
16267;DHT22;8241;48.786;9.250;2022-08-21T13:40:46;33.50;63.70
16267;DHT22;8241;48.786;9.250;2022-08-21T13:49:03;35.30;60.20
16267;DHT22;8241;48.786;9.250;2022-08-21T13:51:46;35.70;61.40
16267;DHT22;8241;48.786;9.250;2022-08-21T13:59:53;35.00;60.10
16267;DHT22;8241;48.786;9.250;2022-08-21T14:02:52;34.10;61.90
16267;DHT22;8241;48.786;9.250;2022-08-21T14:08:02;33.60;61.20
16267;DHT22;8241;48.786;9.250;2022-08-21T14:13:38;32.40;62.90
16267;DHT22;8241;48.786;9.250;2022-08-21T14:16:12;32.50;63.40
16267;DHT22;8241;48.786;9.250;2022-08-21T14:19:07;32.50;62.70
16267;DHT22;8241;48.786;9.250;2022-08-21T14:21:35;32.50;63.20
16267;DHT22;8241;48.786;9.250;2022-08-21T14:24:03;32.20;62.90
16267;DHT22;8241;48.786;9.250;2022-08-21T14:29:09;31.10;64.50
16267;DHT22;8241;48.786;9.250;2022-08-21T14:31:39;31.50;64.40
16267;DHT22;8241;48.786;9.250;2022-08-21T14:34:10;31.10;64.60
16267;DHT22;8241;48.786;9.250;2022-08-21T14:36:47;30.80;64.60
16267;DHT22;8241;48.786;9.250;2022-08-21T14:41:51;31.00;64.30
16267;DHT22;8241;48.786;9.250;2022-08-21T14:44:19;31.10;64.00
16267;DHT22;8241;48.786;9.250;2022-08-21T14:46:48;31.40;63.60
16267;DHT22;8241;48.786;9.250;2022-08-21T14:49:17;30.90;64.50
16267;DHT22;8241;48.786;9.250;2022-08-21T14:51:51;31.50;64.10
16267;DHT22;8241;48.786;9.250;2022-08-21T14:54:26;32.00;64.50
16267;DHT22;8241;48.786;9.250;2022-08-21T14:59:30;32.50;62.70
16267;DHT22;8241;48.786;9.250;2022-08-21T15:02:11;32.50;62.30
16267;DHT22;8241;48.786;9.250;2022-08-21T15:04:38;32.60;62.90
16267;DHT22;8241;48.786;9.250;2022-08-21T15:07:15;32.70;63.00
16267;DHT22;8241;48.786;9.250;2022-08-21T15:09:42;32.80;63.80
16267;DHT22;8241;48.786;9.250;2022-08-21T15:12:09;32.70;62.40
16267;DHT22;8241;48.786;9.250;2022-08-21T15:14:38;32.50;62.30
16267;DHT22;8241;48.786;9.250;2022-08-21T15:17:06;32.60;62.90
16267;DHT22;8241;48.786;9.250;2022-08-21T15:19:40;32.40;62.50
16267;DHT22;8241;48.786;9.250;2022-08-21T15:25:01;32.00;63.50
16267;DHT22;8241;48.786;9.250;2022-08-21T15:27:29;32.00;64.00
16267;DHT22;8241;48.786;9.250;2022-08-21T15:29:57;31.80;62.80
16267;DHT22;8241;48.786;9.250;2022-08-21T15:32:28;31.10;63.20
16267;DHT22;8241;48.786;9.250;2022-08-21T15:34:57;30.70;65.90
16267;DHT22;8241;48.786;9.250;2022-08-21T15:37:30;30.50;64.40
16267;DHT22;8241;48.786;9.250;2022-08-21T15:42:34;30.10;65.60
16267;DHT22;8241;48.786;9.250;2022-08-21T15:45:06;30.10;66.10
16267;DHT22;8241;48.786;9.250;2022-08-21T15:47:37;30.40;65.30
16267;DHT22;8241;48.786;9.250;2022-08-21T15:50:06;30.10;65.10
16267;DHT22;8241;48.786;9.250;2022-08-21T15:52:51;29.90;66.30
16267;DHT22;8241;48.786;9.250;2022-08-21T15:55:19;29.80;66.10
16267;DHT22;8241;48.786;9.250;2022-08-21T15:58:02;29.70;65.70
16267;DHT22;8241;48.786;9.250;2022-08-21T16:03:27;29.70;65.40
16267;DHT22;8241;48.786;9.250;2022-08-21T16:06:07;29.60;65.90
16267;DHT22;8241;48.786;9.250;2022-08-21T16:14:27;29.60;66.00
16267;DHT22;8241;48.786;9.250;2022-08-21T16:19:44;29.60;65.70
16267;DHT22;8241;48.786;9.250;2022-08-21T16:25:12;29.50;65.70
16267;DHT22;8241;48.786;9.250;2022-08-21T16:27:39;29.30;65.30
16267;DHT22;8241;48.786;9.250;2022-08-21T16:30:09;29.30;66.50
16267;DHT22;8241;48.786;9.250;2022-08-21T16:38:31;29.20;66.50
16267;DHT22;8241;48.786;9.250;2022-08-21T16:43:59;28.90;66.90
16267;DHT22;8241;48.786;9.250;2022-08-21T16:46:30;28.90;67.20
16267;DHT22;8241;48.786;9.250;2022-08-21T16:49:03;28.90;66.80
16267;DHT22;8241;48.786;9.250;2022-08-21T16:59:27;28.70;65.90
16267;DHT22;8241;48.786;9.250;2022-08-21T17:09:51;28.40;66.50
16267;DHT22;8241;48.786;9.250;2022-08-21T17:12:24;28.30;66.60
16267;DHT22;8241;48.786;9.250;2022-08-21T17:14:53;28.20;66.80
16267;DHT22;8241;48.786;9.250;2022-08-21T17:17:20;28.20;66.90
16267;DHT22;8241;48.786;9.250;2022-08-21T17:19:56;28.10;67.70
16267;DHT22;8241;48.786;9.250;2022-08-21T17:22:25;28.00;67.20
16267;DHT22;8241;48.786;9.250;2022-08-21T17:27:52;27.90;68.20
16267;DHT22;8241;48.786;9.250;2022-08-21T17:30:29;27.90;67.20
16267;DHT22;8241;48.786;9.250;2022-08-21T17:35:49;27.70;67.50
16267;DHT22;8241;48.786;9.250;2022-08-21T17:41:18;27.60;68.20
16267;DHT22;8241;48.786;9.250;2022-08-21T17:43:45;27.40;69.20
16267;DHT22;8241;48.786;9.250;2022-08-21T17:46:18;27.20;70.00
16267;DHT22;8241;48.786;9.250;2022-08-21T17:48:45;27.30;70.40
16267;DHT22;8241;48.786;9.250;2022-08-21T17:51:13;27.20;70.70
16267;DHT22;8241;48.786;9.250;2022-08-21T17:53:39;27.10;70.30
16267;DHT22;8241;48.786;9.250;2022-08-21T17:56:06;27.10;70.70
16267;DHT22;8241;48.786;9.250;2022-08-21T17:58:35;27.00;70.80
16267;DHT22;8241;48.786;9.250;2022-08-21T18:01:02;26.90;71.60
16267;DHT22;8241;48.786;9.250;2022-08-21T18:03:31;26.80;72.60
16267;DHT22;8241;48.786;9.250;2022-08-21T18:08:45;26.60;74.00
16267;DHT22;8241;48.786;9.250;2022-08-21T18:14:33;26.20;76.90
16267;DHT22;8241;48.786;9.250;2022-08-21T18:17:13;25.90;77.90
16267;DHT22;8241;48.786;9.250;2022-08-21T18:19:41;25.60;78.10
16267;DHT22;8241;48.786;9.250;2022-08-21T18:22:08;25.40;78.60
16267;DHT22;8241;48.786;9.250;2022-08-21T18:25:24;25.40;77.60
16267;DHT22;8241;48.786;9.250;2022-08-21T18:27:52;25.20;79.70
16267;DHT22;8241;48.786;9.250;2022-08-21T18:30:21;25.00;82.00
16267;DHT22;8241;48.786;9.250;2022-08-21T18:32:49;24.80;79.30
16267;DHT22;8241;48.786;9.250;2022-08-21T18:35:18;24.60;80.80
16267;DHT22;8241;48.786;9.250;2022-08-21T18:37:45;24.50;80.50